createdAt,value
2022-11-03T00:01:48.002Z,1.00
2022-11-03T00:04:17.312Z,1.00
2022-11-03T00:06:45.512Z,1.00
2022-11-03T00:09:14.097Z,1.00
2022-11-03T00:41:15.985Z,1.00
2022-11-03T00:43:43.192Z,1.00
2022-11-03T00:46:10.451Z,1.00
2022-11-03T00:48:38.054Z,1.00
2022-11-03T00:51:16.594Z,1.00
2022-11-03T00:53:45.620Z,1.00
2022-11-03T00:56:23.677Z,1.00
2022-11-03T00:58:51.252Z,1.00
2022-11-03T01:01:23.816Z,1.00
2022-11-03T01:04:11.602Z,1.00
2022-11-03T01:06:52.618Z,1.00
2022-11-03T01:09:26.423Z,1.00
2022-11-03T01:11:59.885Z,1.00
2022-11-03T01:14:34.337Z,1.00
2022-11-03T01:17:01.728Z,1.00
2022-11-03T01:19:28.463Z,1.00
2022-11-03T01:21:55.198Z,1.00
2022-11-03T01:24:22.833Z,1.00
2022-11-03T01:26:50.022Z,1.00
2022-11-03T01:29:17.053Z,1.00
2022-11-03T01:31:43.836Z,1.00
2022-11-03T01:34:19.057Z,1.00
2022-11-03T01:36:46.483Z,1.00
2022-11-03T01:39:18.885Z,1.00
2022-11-03T01:41:48.906Z,1.00
2022-11-03T01:44:15.567Z,1.00
2022-11-03T01:46:54.822Z,1.00
2022-11-03T01:49:25.272Z,1.00
2022-11-03T01:51:58.105Z,1.00
2022-11-03T01:54:29.630Z,1.00
2022-11-03T01:56:58.815Z,1.00
2022-11-03T01:59:26.017Z,1.00
2022-11-03T02:01:52.937Z,1.00
2022-11-03T02:04:31.625Z,1.00
2022-11-03T02:07:12.159Z,1.00
2022-11-03T02:09:39.170Z,1.00
2022-11-03T02:12:07.614Z,1.00
2022-11-03T02:14:43.973Z,1.00
2022-11-03T02:17:13.258Z,1.00
2022-11-03T02:19:47.233Z,1.00
2022-11-03T02:22:22.616Z,1.00
2022-11-03T02:24:54.276Z,1.00
2022-11-03T02:27:21.919Z,1.00
2022-11-03T02:29:49.369Z,1.00
2022-11-03T02:32:26.841Z,1.00
2022-11-03T02:35:05.869Z,1.00
2022-11-03T02:37:38.164Z,1.00
2022-11-03T02:40:15.817Z,1.00
2022-11-03T02:42:45.982Z,1.00
2022-11-03T02:45:17.501Z,1.00
2022-11-03T02:47:45.276Z,1.00
2022-11-03T02:50:13.450Z,1.00
2022-11-03T02:52:44.093Z,1.00
2022-11-03T02:55:28.992Z,1.00
2022-11-03T02:58:14.292Z,1.00
2022-11-03T03:00:49.018Z,1.00
2022-11-03T03:03:26.635Z,1.00
2022-11-03T03:06:02.296Z,1.00
2022-11-03T03:08:30.554Z,1.00
2022-11-03T03:11:00.676Z,1.00
2022-11-03T03:13:27.825Z,1.00
2022-11-03T03:16:35.771Z,1.00
2022-11-03T03:19:18.431Z,1.00
2022-11-03T03:21:50.125Z,1.00
2022-11-03T03:25:02.559Z,1.00
2022-11-03T03:27:33.879Z,1.00
2022-11-03T03:30:05.538Z,52.20
2022-11-03T03:32:37.502Z,76.00
2022-11-03T03:35:11.093Z,99.90
2022-11-03T03:37:42.244Z,40.70
2022-11-03T03:40:13.684Z,65.30
2022-11-03T03:42:42.779Z,93.40
2022-11-03T03:45:11.496Z,1.00
2022-11-03T03:47:38.320Z,1.00
2022-11-03T03:50:06.135Z,17.40
2022-11-03T03:52:34.948Z,35.00
2022-11-03T03:55:02.156Z,99.90
2022-11-03T03:57:31.643Z,51.20
2022-11-03T03:59:58.817Z,99.90
2022-11-03T04:02:25.701Z,99.90
2022-11-03T04:04:52.587Z,99.90
2022-11-03T04:07:54.644Z,99.90
2022-11-03T04:10:23.171Z,99.90
2022-11-03T04:13:09.691Z,99.90
2022-11-03T04:15:51.687Z,99.90
2022-11-03T04:18:40.837Z,99.90
2022-11-03T04:21:44.629Z,99.90
2022-11-03T04:24:11.347Z,99.90
2022-11-03T04:26:38.059Z,99.90
2022-11-03T04:29:09.854Z,99.90
2022-11-03T04:31:36.699Z,99.90
2022-11-03T04:34:10.328Z,1.00
2022-11-03T04:36:37.100Z,1.00
2022-11-03T04:39:16.214Z,1.00
2022-11-03T04:41:43.261Z,1.00
2022-11-03T04:44:17.390Z,1.00
2022-11-03T04:46:46.637Z,1.00
2022-11-03T04:49:21.745Z,1.00
2022-11-03T04:51:49.844Z,1.00
2022-11-03T04:54:19.894Z,1.00
2022-11-03T04:56:46.747Z,1.00
2022-11-03T04:59:15.999Z,1.00
2022-11-03T05:01:46.768Z,1.00
2022-11-03T05:04:16.420Z,1.00
2022-11-03T05:06:51.093Z,1.00
2022-11-03T05:09:26.884Z,1.00
2022-11-03T05:11:54.228Z,1.00
2022-11-03T05:14:25.859Z,1.00
2022-11-03T05:16:54.339Z,1.00
2022-11-03T05:19:24.368Z,1.00
2022-11-03T05:21:52.695Z,1.00
2022-11-03T05:24:21.218Z,1.00
2022-11-03T05:26:49.467Z,1.00
2022-11-03T05:29:19.753Z,1.00
2022-11-03T05:31:51.888Z,1.00
2022-11-03T05:34:30.764Z,1.00
2022-11-03T05:37:07.218Z,1.00
2022-11-03T05:39:33.906Z,57.10
2022-11-03T05:42:01.326Z,1.00
2022-11-03T05:44:39.741Z,1.00
2022-11-03T05:47:28.125Z,81.20
2022-11-03T05:49:59.406Z,99.90
2022-11-03T05:52:28.029Z,99.90
2022-11-03T05:54:58.548Z,99.90
2022-11-03T05:57:28.407Z,99.90
2022-11-03T05:59:55.806Z,99.90
2022-11-03T06:02:43.273Z,99.90
2022-11-03T06:05:20.091Z,99.90
2022-11-03T06:07:48.592Z,99.90
2022-11-03T06:10:21.558Z,99.90
2022-11-03T06:12:48.477Z,99.90
2022-11-03T06:15:48.525Z,1.00
2022-11-03T06:18:21.118Z,1.00
2022-11-03T06:20:52.866Z,1.00
2022-11-03T06:23:21.008Z,1.00
2022-11-03T06:25:48.975Z,1.00
2022-11-03T06:28:20.785Z,1.00
2022-11-03T06:30:49.041Z,1.00
2022-11-03T06:33:28.506Z,1.00
2022-11-03T06:36:02.026Z,1.00
2022-11-03T06:38:31.686Z,1.00
2022-11-03T06:40:59.212Z,1.00
2022-11-03T06:43:32.776Z,1.00
2022-11-03T06:46:01.139Z,1.00
2022-11-03T06:48:33.938Z,1.00
2022-11-03T06:51:01.690Z,1.00
2022-11-03T06:53:33.022Z,1.00
2022-11-03T06:56:00.159Z,1.00
2022-11-03T06:58:38.458Z,1.00
2022-11-03T07:01:26.802Z,1.00
2022-11-03T07:03:59.252Z,1.00
2022-11-03T07:06:32.665Z,1.00
2022-11-03T07:09:01.814Z,1.00
2022-11-03T07:11:31.894Z,1.00
2022-11-03T07:14:23.210Z,1.00
2022-11-03T07:16:58.175Z,1.00
2022-11-03T07:19:38.777Z,1.00
2022-11-03T07:22:16.735Z,1.00
2022-11-03T07:24:48.578Z,1.00
2022-11-03T07:27:27.601Z,1.00
2022-11-03T07:30:11.440Z,99.90
2022-11-03T07:32:39.589Z,99.90
2022-11-03T07:35:21.481Z,1.00
2022-11-03T07:37:51.705Z,99.90
2022-11-03T07:40:23.872Z,99.90
2022-11-03T07:42:51.447Z,99.90
2022-11-03T07:45:41.069Z,99.90
2022-11-03T07:48:44.224Z,99.90
2022-11-03T07:51:22.107Z,99.90
2022-11-03T07:53:56.627Z,99.90
2022-11-03T07:56:29.301Z,99.90
2022-11-03T07:59:01.013Z,99.90
2022-11-03T08:01:32.112Z,68.60
2022-11-03T08:04:08.220Z,1.00
2022-11-03T08:06:35.002Z,42.80
2022-11-03T08:09:01.893Z,40.70
2022-11-03T08:11:29.656Z,1.00
2022-11-03T08:13:57.165Z,1.00
2022-11-03T08:16:23.972Z,1.00
2022-11-03T08:18:50.900Z,1.00
2022-11-03T08:21:17.614Z,1.00
2022-11-03T08:23:47.431Z,1.00
2022-11-03T08:26:15.089Z,1.00
2022-11-03T08:28:41.838Z,1.00
2022-11-03T08:31:12.603Z,1.00
2022-11-03T08:33:40.321Z,1.00
2022-11-03T08:36:27.447Z,1.00
2022-11-03T08:38:54.189Z,1.00
2022-11-03T08:41:20.848Z,1.00
2022-11-03T08:43:47.612Z,1.00
2022-11-03T08:46:17.598Z,1.00
2022-11-03T08:48:45.317Z,1.00
2022-11-03T08:51:13.854Z,99.90
2022-11-03T08:53:42.763Z,1.00
2022-11-03T08:56:12.749Z,99.90
2022-11-03T08:58:45.042Z,99.90
2022-11-03T09:01:12.462Z,99.90
2022-11-03T09:03:40.064Z,99.90
2022-11-03T09:06:08.068Z,99.90
2022-11-03T09:11:21.597Z,1.00
2022-11-03T09:13:48.297Z,1.00
2022-11-03T09:16:15.041Z,1.00
2022-11-03T09:18:41.782Z,1.00
2022-11-03T09:21:08.916Z,1.00
2022-11-03T09:23:35.850Z,1.00
2022-11-03T09:26:02.607Z,1.00
2022-11-03T09:28:29.398Z,1.00
2022-11-03T09:30:56.073Z,1.00
2022-11-03T09:33:22.851Z,1.00
2022-11-03T09:35:49.588Z,1.00
2022-11-03T09:38:16.318Z,1.00
2022-11-03T09:40:43.173Z,1.00
2022-11-03T09:43:10.870Z,1.00
2022-11-03T09:45:39.267Z,1.00
2022-11-03T09:48:13.389Z,1.00
2022-11-03T09:50:40.816Z,99.90
2022-11-03T09:53:11.646Z,99.90
2022-11-03T09:55:39.726Z,99.90
2022-11-03T09:58:14.059Z,99.90
2022-11-03T10:00:41.472Z,99.90
2022-11-03T10:03:17.059Z,99.90
2022-11-03T10:05:47.898Z,99.90
2022-11-03T10:08:25.537Z,99.90
2022-11-03T10:10:52.956Z,99.90
2022-11-03T10:13:31.474Z,99.90
2022-11-03T10:16:00.669Z,99.90
2022-11-03T10:18:28.620Z,99.90
2022-11-03T10:20:55.562Z,99.90
2022-11-03T10:23:22.322Z,99.90
2022-11-03T10:25:49.086Z,99.90
2022-11-03T10:28:23.025Z,99.90
2022-11-03T10:31:13.266Z,99.90
2022-11-03T10:33:53.606Z,99.90
2022-11-03T10:36:20.325Z,99.90
2022-11-03T10:38:48.125Z,99.90
2022-11-03T10:41:23.718Z,99.90
2022-11-03T10:44:00.556Z,18.50
2022-11-03T10:49:16.472Z,1.00
2022-11-03T10:51:47.577Z,43.30
2022-11-03T10:54:16.923Z,95.40
2022-11-03T10:56:45.191Z,1.00
2022-11-03T10:59:19.098Z,58.40
2022-11-03T11:01:46.426Z,99.90
2022-11-03T11:04:20.647Z,99.90
2022-11-03T11:06:48.087Z,1.00
2022-11-03T11:09:21.766Z,49.50
2022-11-03T11:12:06.651Z,1.00
2022-11-03T11:14:36.810Z,1.00
2022-11-03T11:17:04.914Z,1.00
2022-11-03T11:20:10.332Z,1.00
2022-11-03T11:22:37.240Z,1.00
2022-11-03T11:25:04.324Z,1.00
2022-11-03T11:27:37.092Z,1.00
2022-11-03T11:30:07.422Z,1.00
2022-11-03T11:32:37.290Z,1.00
2022-11-03T11:35:04.128Z,1.00
2022-11-03T11:37:30.836Z,1.00
2022-11-03T11:39:57.623Z,1.00
2022-11-03T11:45:03.478Z,1.00
2022-11-03T11:47:49.256Z,1.00
2022-11-03T11:50:17.766Z,1.00
2022-11-03T11:53:02.930Z,1.00
2022-11-03T11:55:32.547Z,1.00
2022-11-03T11:58:02.075Z,1.00
2022-11-03T12:00:31.913Z,1.00
2022-11-03T12:03:01.218Z,1.00
2022-11-03T12:05:35.954Z,1.00
2022-11-03T12:08:16.453Z,1.00
2022-11-03T12:10:53.489Z,1.00
2022-11-03T12:13:47.663Z,1.00
2022-11-03T12:16:33.950Z,1.00
2022-11-03T12:19:35.712Z,1.00
2022-11-03T12:22:23.464Z,1.00
2022-11-03T12:25:01.239Z,1.00
2022-11-03T12:27:27.980Z,1.00
2022-11-03T12:30:00.084Z,1.00
2022-11-03T12:32:34.645Z,1.00
2022-11-03T12:35:03.187Z,1.00
2022-11-03T12:37:29.916Z,1.00
2022-11-03T12:39:56.774Z,1.00
2022-11-03T12:42:25.064Z,1.00
2022-11-03T12:44:52.645Z,1.00
2022-11-03T12:47:20.422Z,1.00
2022-11-03T12:49:47.218Z,1.00
2022-11-03T12:52:14.009Z,99.90
2022-11-03T12:54:42.220Z,99.90
2022-11-03T12:57:09.238Z,99.90
2022-11-03T12:59:36.048Z,99.90
2022-11-03T13:02:02.995Z,99.90
2022-11-03T13:04:29.767Z,99.90
2022-11-03T13:06:56.703Z,1.00
2022-11-03T13:09:23.415Z,99.90
2022-11-03T13:12:08.767Z,1.00
2022-11-03T13:14:35.531Z,1.00
2022-11-03T13:17:03.750Z,1.00
2022-11-03T13:19:30.742Z,1.00
2022-11-03T13:21:57.546Z,1.00
2022-11-03T13:24:24.462Z,1.00
2022-11-03T13:26:51.269Z,1.00
2022-11-03T13:29:18.149Z,1.00
2022-11-03T13:31:44.965Z,1.00
2022-11-03T13:34:11.742Z,1.00
2022-11-03T13:36:38.531Z,1.00
2022-11-03T13:39:05.237Z,1.00
2022-11-03T13:41:31.926Z,1.00
2022-11-03T13:43:58.681Z,1.00
2022-11-03T13:46:25.397Z,1.00
2022-11-03T13:49:43.897Z,1.00
2022-11-03T13:51:39.046Z,1.00
2022-11-03T13:59:39.508Z,1.00
2022-11-03T14:04:53.479Z,1.00
2022-11-03T14:07:20.362Z,1.00
2022-11-03T14:09:47.174Z,1.00
2022-11-03T14:12:32.592Z,1.00
2022-11-03T14:15:00.231Z,1.00
2022-11-03T14:17:27.108Z,1.00
2022-11-03T14:19:57.889Z,1.00
2022-11-03T14:22:30.557Z,1.00
2022-11-03T14:24:57.585Z,1.00
2022-11-03T14:27:24.772Z,1.00
2022-11-03T14:29:51.629Z,1.00
2022-11-03T14:32:19.050Z,1.00
2022-11-03T14:34:46.154Z,1.00
2022-11-03T14:37:13.433Z,1.00
2022-11-03T14:39:40.900Z,99.90
2022-11-03T14:42:15.076Z,99.90
2022-11-03T14:44:43.604Z,99.90
2022-11-03T14:47:15.256Z,99.90
2022-11-03T14:49:42.053Z,1.00
2022-11-03T14:52:09.027Z,1.00
2022-11-03T14:54:36.478Z,1.00
2022-11-03T14:57:04.598Z,1.00
2022-11-03T14:59:32.193Z,1.00
2022-11-03T15:02:00.098Z,1.00
2022-11-03T15:04:27.322Z,1.00
2022-11-03T15:06:54.535Z,1.00
2022-11-03T15:09:21.495Z,1.00
2022-11-03T15:11:48.389Z,1.00
2022-11-03T15:14:15.136Z,1.00
2022-11-03T15:16:41.946Z,1.00
2022-11-03T15:19:08.977Z,1.00
2022-11-03T15:21:35.987Z,16.20
2022-11-03T15:26:49.716Z,1.00
2022-11-03T15:29:16.488Z,1.00
2022-11-03T15:31:47.911Z,1.00
2022-11-03T15:34:15.896Z,1.00
2022-11-03T15:36:42.818Z,1.00
2022-11-03T15:39:09.696Z,62.30
2022-11-03T15:41:36.562Z,23.00
2022-11-03T15:44:03.454Z,99.90
2022-11-03T15:46:30.398Z,99.90
2022-11-03T15:48:57.680Z,16.40
2022-11-03T15:51:24.936Z,90.10
2022-11-03T15:53:57.795Z,99.90
2022-11-03T15:56:25.864Z,99.90
2022-11-03T15:58:52.598Z,99.90
2022-11-03T16:01:19.480Z,99.90
2022-11-03T16:03:46.308Z,99.90
2022-11-03T16:06:13.054Z,99.90
2022-11-03T16:08:39.972Z,99.90
2022-11-03T16:11:06.753Z,99.90
2022-11-03T16:13:33.544Z,99.90
2022-11-03T16:16:00.365Z,99.90
2022-11-03T16:18:27.127Z,99.90
2022-11-03T16:20:53.899Z,99.90
2022-11-03T16:23:20.649Z,99.90
2022-11-03T16:25:47.519Z,99.90
2022-11-03T16:28:14.739Z,1.00
2022-11-03T16:30:41.499Z,1.00
2022-11-03T16:33:08.792Z,1.00
2022-11-03T16:35:35.519Z,99.90
2022-11-03T16:38:02.228Z,1.00
2022-11-03T16:40:28.980Z,1.00
2022-11-03T16:42:55.663Z,1.00
2022-11-03T16:45:25.915Z,99.90
2022-11-03T16:47:53.251Z,1.00
2022-11-03T16:50:20.477Z,74.30
2022-11-03T16:52:49.229Z,1.00
2022-11-03T16:55:17.466Z,1.00
2022-11-03T16:57:44.634Z,99.90
2022-11-03T17:00:17.381Z,99.90
2022-11-03T17:02:45.637Z,99.90
2022-11-03T17:05:13.599Z,99.90
2022-11-03T17:07:40.306Z,99.90
2022-11-03T17:10:07.972Z,99.90
2022-11-03T17:12:34.743Z,99.90
2022-11-03T17:15:01.450Z,99.90
2022-11-03T17:17:28.252Z,99.90
2022-11-03T17:19:55.079Z,99.90
2022-11-03T17:22:22.333Z,99.90
2022-11-03T17:24:49.648Z,99.90
2022-11-03T17:27:21.806Z,99.90
2022-11-03T17:29:52.041Z,99.90
2022-11-03T17:32:29.470Z,99.90
2022-11-03T17:34:57.755Z,99.90
2022-11-03T17:37:26.162Z,99.90
2022-11-03T17:39:53.061Z,99.90
2022-11-03T17:42:25.133Z,99.90
2022-11-03T17:44:55.460Z,99.90
2022-11-03T17:47:23.175Z,99.90
2022-11-03T17:49:49.953Z,99.90
2022-11-03T17:52:29.004Z,99.90
2022-11-03T17:55:00.043Z,99.90
2022-11-03T17:57:27.398Z,99.90
2022-11-03T17:59:57.231Z,99.90
2022-11-03T18:02:26.501Z,99.90
2022-11-03T18:05:14.160Z,99.90
2022-11-03T18:07:43.919Z,99.90
2022-11-03T18:10:10.657Z,99.90
2022-11-03T18:12:58.523Z,99.90
2022-11-03T18:15:26.987Z,99.90
2022-11-03T18:17:53.845Z,99.90
2022-11-03T18:20:24.116Z,99.90
2022-11-03T18:22:50.851Z,99.90
2022-11-03T18:25:21.049Z,99.90
2022-11-03T18:27:48.298Z,99.90
2022-11-03T18:30:16.837Z,99.90
2022-11-03T18:32:48.941Z,99.90
2022-11-03T18:35:22.591Z,99.90
2022-11-03T18:37:50.282Z,99.90
2022-11-03T18:40:17.401Z,99.90
2022-11-03T18:42:44.198Z,99.90
2022-11-03T18:45:13.141Z,99.90
2022-11-03T18:47:40.205Z,99.90
2022-11-03T18:50:10.158Z,99.90
2022-11-03T18:52:41.118Z,99.90
2022-11-03T18:55:12.639Z,99.90
2022-11-03T18:57:40.278Z,99.90
2022-11-03T19:00:16.783Z,99.90
2022-11-03T19:02:43.543Z,99.90
2022-11-03T19:05:13.682Z,99.90
2022-11-03T19:07:42.720Z,99.90
2022-11-03T19:10:13.436Z,99.90
2022-11-03T19:12:44.305Z,99.90
2022-11-03T19:15:23.087Z,99.90
2022-11-03T19:17:52.386Z,99.90
2022-11-03T19:20:19.247Z,99.90
2022-11-03T19:22:46.671Z,99.90
2022-11-03T19:25:14.914Z,99.90
2022-11-03T19:27:45.282Z,99.90
2022-11-03T19:30:15.963Z,99.90
2022-11-03T19:32:48.596Z,99.90
2022-11-03T19:35:25.898Z,99.90
2022-11-03T19:38:01.460Z,99.90
2022-11-03T19:40:28.541Z,99.90
2022-11-03T19:42:55.780Z,99.90
2022-11-03T19:45:24.139Z,99.90
2022-11-03T19:48:22.547Z,99.90
2022-11-03T19:50:44.750Z,99.90
2022-11-03T19:53:19.085Z,99.90
2022-11-03T19:55:46.221Z,99.90
2022-11-03T19:58:18.116Z,99.90
2022-11-03T20:00:45.852Z,99.90
2022-11-03T20:03:13.078Z,99.90
2022-11-03T20:05:42.882Z,99.90
2022-11-03T20:08:19.098Z,99.90
2022-11-03T20:10:48.022Z,99.90
2022-11-03T20:13:28.856Z,99.90
2022-11-03T20:16:00.588Z,99.90
2022-11-03T20:18:28.231Z,99.90
2022-11-03T20:20:55.206Z,99.90
2022-11-03T20:23:33.086Z,99.90
2022-11-03T20:26:01.027Z,99.90
2022-11-03T20:28:30.611Z,99.90
2022-11-03T20:30:57.823Z,99.90
2022-11-03T20:33:25.373Z,99.90
2022-11-03T20:35:53.746Z,99.90
2022-11-03T20:38:21.838Z,99.90
2022-11-03T20:40:51.283Z,99.90
2022-11-03T20:43:38.166Z,99.90
2022-11-03T20:46:25.359Z,99.90
2022-11-03T20:48:52.915Z,99.90
2022-11-03T20:51:23.734Z,99.90
2022-11-03T20:53:51.523Z,99.90
2022-11-03T20:56:24.595Z,99.90
2022-11-03T20:58:51.830Z,99.90
2022-11-03T21:01:23.937Z,99.90
2022-11-03T21:03:59.169Z,99.90
2022-11-03T21:06:28.403Z,99.90
2022-11-03T21:08:55.378Z,99.90
2022-11-03T21:11:33.916Z,99.90
2022-11-03T21:14:07.922Z,99.90
2022-11-03T21:16:53.132Z,99.90
2022-11-03T21:20:00.902Z,99.90
2022-11-03T21:22:57.175Z,99.90
2022-11-03T21:25:24.771Z,99.90
2022-11-03T21:27:53.771Z,99.90
2022-11-03T21:30:21.345Z,99.90
2022-11-03T21:32:48.159Z,99.90
2022-11-03T21:35:20.310Z,99.90
2022-11-03T21:37:47.360Z,99.90
2022-11-03T21:40:14.431Z,99.90
2022-11-03T21:43:00.297Z,99.90
2022-11-03T21:45:27.399Z,99.90
2022-11-03T21:48:13.858Z,99.90
2022-11-03T21:50:41.732Z,99.90
2022-11-03T21:53:08.947Z,99.90
2022-11-03T21:55:36.471Z,99.90
2022-11-03T21:58:04.307Z,99.90
2022-11-03T22:00:32.067Z,99.90
2022-11-03T22:02:59.456Z,99.90
2022-11-03T22:05:26.600Z,99.90
2022-11-03T22:07:53.542Z,99.90
2022-11-03T22:10:20.616Z,99.90
2022-11-03T22:12:47.395Z,99.90
2022-11-03T22:15:32.624Z,99.90
2022-11-03T22:18:07.073Z,99.90
2022-11-03T22:20:54.453Z,99.90
2022-11-03T22:23:39.929Z,99.90
2022-11-03T22:26:32.554Z,99.90
2022-11-03T22:29:18.053Z,99.90
2022-11-03T22:31:45.133Z,99.90
2022-11-03T22:34:30.796Z,99.90
2022-11-03T22:36:57.568Z,99.90
2022-11-03T22:39:42.909Z,99.90
2022-11-03T22:42:30.778Z,99.90
2022-11-03T22:45:16.093Z,99.90
2022-11-03T22:47:42.922Z,99.90
2022-11-03T22:50:10.039Z,99.90
2022-11-03T22:52:36.813Z,99.90
2022-11-03T22:55:03.972Z,99.90
2022-11-03T22:57:30.739Z,99.90
2022-11-03T22:59:57.459Z,99.90
2022-11-03T23:02:24.364Z,99.90
2022-11-03T23:04:51.139Z,99.90
2022-11-03T23:07:17.898Z,99.90
2022-11-03T23:09:45.268Z,99.90
2022-11-03T23:12:13.152Z,99.90
2022-11-03T23:14:58.691Z,99.90
2022-11-03T23:17:45.417Z,99.90
2022-11-03T23:20:31.017Z,99.90
2022-11-03T23:22:57.806Z,99.90
2022-11-03T23:25:24.550Z,99.90
2022-11-03T23:27:52.760Z,99.90
2022-11-03T23:30:19.698Z,99.90
2022-11-03T23:32:46.428Z,99.90
2022-11-03T23:35:14.550Z,99.90
2022-11-03T23:37:41.353Z,99.90
2022-11-03T23:40:08.699Z,99.90
2022-11-03T23:42:35.446Z,99.90
2022-11-03T23:45:21.034Z,99.90
2022-11-03T23:48:07.171Z,99.90
2022-11-03T23:50:34.093Z,99.90
2022-11-03T23:53:00.839Z,99.90
2022-11-03T23:55:47.475Z,99.90
2022-11-03T23:58:20.428Z,99.90
